createdAt,value
2022-11-17T05:30:42.261Z,99.99
2022-11-17T05:31:42.139Z,99.98
2022-11-17T05:32:42.103Z,99.99
2022-11-17T05:33:42.512Z,99.99
2022-11-17T05:34:42.079Z,99.82
2022-11-17T05:35:42.099Z,99.82
2022-11-17T05:36:42.108Z,99.77
2022-11-17T05:37:42.057Z,99.71
2022-11-17T05:38:42.042Z,99.87
2022-11-17T05:39:42.030Z,99.30
2022-11-17T05:40:42.047Z,99.87
2022-11-17T05:41:42.025Z,99.36
2022-11-17T05:42:42.002Z,99.99
2022-11-17T05:43:41.987Z,99.26
2022-11-17T05:44:41.980Z,99.77
2022-11-17T05:45:41.985Z,99.36
2022-11-17T05:46:42.067Z,99.15
2022-11-17T05:47:41.978Z,99.36
2022-11-17T05:48:41.928Z,99.56
2022-11-17T05:49:41.945Z,99.46
2022-11-17T05:50:41.914Z,98.95
2022-11-17T05:51:41.906Z,98.54
2022-11-17T05:52:41.905Z,98.65
2022-11-17T05:53:41.891Z,98.44
2022-11-17T05:54:41.868Z,98.65
2022-11-17T05:55:41.888Z,98.85
2022-11-17T05:56:41.866Z,98.85
2022-11-17T05:57:41.831Z,99.05
2022-11-17T05:58:41.823Z,98.90
2022-11-17T05:59:41.819Z,98.65
2022-11-17T06:00:41.836Z,98.85
2022-11-17T06:01:41.810Z,98.80
2022-11-17T06:02:41.802Z,98.85
2022-11-17T06:03:41.767Z,98.49
2022-11-17T06:04:41.801Z,97.98
2022-11-17T06:05:41.760Z,98.49
2022-11-17T06:06:41.756Z,98.33
2022-11-17T06:07:41.741Z,97.98
2022-11-17T06:08:41.715Z,97.82
2022-11-17T06:09:41.701Z,98.03
2022-11-17T06:10:41.695Z,98.19
2022-11-17T06:11:41.703Z,98.19
2022-11-17T06:12:41.668Z,98.08
2022-11-17T06:13:41.680Z,97.98
2022-11-17T06:14:41.650Z,97.98
2022-11-17T06:15:41.634Z,98.19
2022-11-17T06:16:41.626Z,98.08
2022-11-17T06:17:41.653Z,98.49
2022-11-17T06:18:41.736Z,98.08
2022-11-17T06:19:41.598Z,97.98
2022-11-17T06:20:41.601Z,98.39
2022-11-17T06:22:04.844Z,98.08
2022-11-17T06:22:48.019Z,98.49
2022-11-17T06:23:42.563Z,99.01
2022-11-17T06:24:41.561Z,98.29
2022-11-17T06:25:41.569Z,98.70
2022-11-17T06:26:41.518Z,98.70
2022-11-17T06:27:41.503Z,98.80
2022-11-17T06:28:41.495Z,98.60
2022-11-17T06:29:44.594Z,98.60
2022-11-17T06:30:41.478Z,98.60
2022-11-17T06:31:41.482Z,98.90
2022-11-17T06:32:41.473Z,98.49
2022-11-17T06:33:41.441Z,98.49
2022-11-17T06:34:41.541Z,98.70
2022-11-17T06:35:41.437Z,98.60
2022-11-17T06:36:41.413Z,98.60
2022-11-17T06:37:41.415Z,98.70
2022-11-17T06:38:41.421Z,98.49
2022-11-17T06:39:41.375Z,98.80
2022-11-17T06:40:41.361Z,98.80
2022-11-17T06:41:41.363Z,98.90
2022-11-17T06:42:41.362Z,98.60
2022-11-17T06:43:41.331Z,98.60
2022-11-17T06:44:41.350Z,98.80
2022-11-17T06:45:41.325Z,99.01
2022-11-17T06:46:46.152Z,98.80
2022-11-17T06:47:42.299Z,98.90
2022-11-17T06:48:41.295Z,98.90
2022-11-17T06:49:41.268Z,98.60
2022-11-17T06:50:41.279Z,98.80
2022-11-17T06:51:45.167Z,99.11
2022-11-17T06:52:41.254Z,99.52
2022-11-17T06:53:41.277Z,99.31
2022-11-17T06:54:41.228Z,99.31
2022-11-17T06:55:41.231Z,99.41
2022-11-17T06:56:41.211Z,99.31
2022-11-17T06:57:41.191Z,99.72
2022-11-17T06:58:41.180Z,99.99
2022-11-17T06:59:41.239Z,99.93
2022-11-17T07:00:41.259Z,99.82
2022-11-17T07:01:41.150Z,99.99
2022-11-17T07:02:41.142Z,99.62
2022-11-17T07:03:41.124Z,99.52
2022-11-17T07:04:41.122Z,99.93
2022-11-17T07:05:41.152Z,99.82
2022-11-17T07:06:41.212Z,99.99
2022-11-17T07:07:41.155Z,99.99
2022-11-17T07:08:41.080Z,99.99
2022-11-17T07:09:41.079Z,99.99
2022-11-17T07:10:46.395Z,99.99
2022-11-17T07:11:41.070Z,99.99
2022-11-17T07:12:41.027Z,99.99
2022-11-17T07:13:41.034Z,99.99
2022-11-17T07:14:41.010Z,99.99
2022-11-17T07:15:40.998Z,99.99
2022-11-17T07:16:40.992Z,99.99
2022-11-17T07:17:41.003Z,99.99
2022-11-17T07:18:40.963Z,99.99
2022-11-17T07:19:40.972Z,99.99
2022-11-17T07:20:40.950Z,99.99
2022-11-17T07:21:40.957Z,99.99
2022-11-17T07:22:40.960Z,99.99
2022-11-17T07:23:40.920Z,99.99
2022-11-17T07:24:40.898Z,99.99
2022-11-17T07:25:40.902Z,99.99
2022-11-17T07:26:40.879Z,99.99
2022-11-17T07:27:40.867Z,99.99
2022-11-17T07:28:40.857Z,99.99
2022-11-17T07:29:40.880Z,99.99
2022-11-17T07:30:40.834Z,99.99
2022-11-17T07:31:40.824Z,99.99
2022-11-17T07:32:40.835Z,99.99
2022-11-17T07:33:40.824Z,99.99
2022-11-17T07:34:40.788Z,99.99
2022-11-17T07:35:40.823Z,99.99
2022-11-17T07:36:40.776Z,99.99
2022-11-17T07:37:40.752Z,99.99
2022-11-17T07:38:40.914Z,99.99
2022-11-17T07:39:40.727Z,99.99
2022-11-17T07:40:40.742Z,99.99
2022-11-17T07:41:40.743Z,99.99
2022-11-17T07:42:40.704Z,99.99
2022-11-17T07:43:40.687Z,99.99
2022-11-17T07:44:40.682Z,99.99
2022-11-17T07:45:40.682Z,99.99
2022-11-17T07:46:40.685Z,99.99
2022-11-17T07:47:40.647Z,99.99
2022-11-17T07:48:40.632Z,99.99
2022-11-17T07:49:40.619Z,99.99
2022-11-17T07:50:40.614Z,99.99
2022-11-17T07:51:40.593Z,99.99
2022-11-17T07:52:41.755Z,99.99
2022-11-17T07:53:40.596Z,99.99
2022-11-17T07:54:40.677Z,99.99
2022-11-17T07:55:40.555Z,99.99
2022-11-17T07:56:40.547Z,99.99
2022-11-17T07:57:40.551Z,99.99
2022-11-17T07:58:40.623Z,99.99
2022-11-17T07:59:40.545Z,99.99
2022-11-17T08:00:40.537Z,99.99
2022-11-17T08:01:40.487Z,99.99
2022-11-17T08:02:40.493Z,99.99
2022-11-17T08:03:40.561Z,99.99
2022-11-17T08:04:40.454Z,99.99
2022-11-17T08:05:43.632Z,99.99
2022-11-17T08:06:40.459Z,99.99
2022-11-17T08:07:40.513Z,99.99
2022-11-17T08:08:40.669Z,99.99
2022-11-17T08:09:40.399Z,99.99
2022-11-17T08:10:40.429Z,99.99
2022-11-17T08:11:40.390Z,99.99
2022-11-17T08:12:40.375Z,99.99
2022-11-17T08:13:40.357Z,99.99
2022-11-17T08:14:40.353Z,99.99
2022-11-17T08:15:40.334Z,99.99
2022-11-17T08:16:40.354Z,99.99
2022-11-17T08:17:40.338Z,99.99
2022-11-17T08:18:40.611Z,99.99
2022-11-17T08:19:40.301Z,99.99
2022-11-17T08:20:40.285Z,99.99
2022-11-17T08:21:40.287Z,99.99
2022-11-17T08:22:40.316Z,99.99
2022-11-17T08:23:40.272Z,99.99
2022-11-17T08:24:40.245Z,99.99
2022-11-17T08:25:40.229Z,99.99
2022-11-17T08:26:40.344Z,99.99
2022-11-17T08:27:40.212Z,99.99
2022-11-17T08:28:40.502Z,99.99
2022-11-17T08:29:40.209Z,99.99
2022-11-17T08:30:40.171Z,99.99
2022-11-17T08:31:40.179Z,99.99
2022-11-17T08:32:40.154Z,99.99
2022-11-17T08:33:40.137Z,99.99
2022-11-17T08:34:40.142Z,99.99
2022-11-17T08:35:40.154Z,99.99
2022-11-17T08:36:40.115Z,99.99
2022-11-17T08:37:40.105Z,99.99
2022-11-17T08:38:40.142Z,99.99
2022-11-17T08:39:40.076Z,99.99
2022-11-17T08:40:40.069Z,99.68
2022-11-17T08:41:40.095Z,99.43
2022-11-17T08:42:40.061Z,99.78
2022-11-17T08:43:40.034Z,99.73
2022-11-17T08:44:40.044Z,99.32
2022-11-17T08:45:40.063Z,99.43
2022-11-17T08:46:39.996Z,99.43
2022-11-17T08:47:40.000Z,99.11
2022-11-17T08:48:40.068Z,99.22
2022-11-17T08:49:39.975Z,98.91
2022-11-17T08:50:39.954Z,98.81
2022-11-17T08:51:39.958Z,98.50
2022-11-17T08:52:39.931Z,98.61
2022-11-17T08:53:39.938Z,98.50
2022-11-17T08:54:39.922Z,98.61
2022-11-17T08:55:41.507Z,98.50
2022-11-17T08:56:40.087Z,97.99
2022-11-17T08:57:39.880Z,97.79
2022-11-17T08:58:40.107Z,97.89
2022-11-17T08:59:39.864Z,96.77
2022-11-17T09:00:39.903Z,96.67
2022-11-17T09:01:39.906Z,97.08
2022-11-17T09:02:39.811Z,96.87
2022-11-17T09:03:39.810Z,96.56
2022-11-17T09:04:39.796Z,96.15
2022-11-17T09:05:39.837Z,95.80
2022-11-17T09:06:39.798Z,96.67
2022-11-17T09:07:39.819Z,96.31
2022-11-17T09:08:47.675Z,96.97
2022-11-17T09:09:40.807Z,96.46
2022-11-17T09:10:39.731Z,95.80
2022-11-17T09:11:39.770Z,96.21
2022-11-17T09:12:39.723Z,96.26
2022-11-17T09:13:39.720Z,95.90
2022-11-17T09:14:39.762Z,95.60
2022-11-17T09:15:39.697Z,95.44
2022-11-17T09:16:39.664Z,95.19
2022-11-17T09:17:39.666Z,95.34
2022-11-17T09:18:40.118Z,94.37
2022-11-17T09:19:39.629Z,94.48
2022-11-17T09:20:45.258Z,94.48
2022-11-17T09:21:40.634Z,93.96
2022-11-17T09:22:39.597Z,94.17
2022-11-17T09:23:39.806Z,93.96
2022-11-17T09:24:39.572Z,94.17
2022-11-17T09:25:39.563Z,94.17
2022-11-17T09:26:39.584Z,93.66
2022-11-17T09:27:39.543Z,93.15
2022-11-17T09:28:39.813Z,92.94
2022-11-17T09:29:39.533Z,93.25
2022-11-17T09:30:39.634Z,93.86
2022-11-17T09:31:39.554Z,92.94
2022-11-17T09:32:39.535Z,93.25
2022-11-17T09:33:39.473Z,93.25
2022-11-17T09:34:39.526Z,93.55
2022-11-17T09:35:39.468Z,92.94
2022-11-17T09:36:39.443Z,93.41
2022-11-17T09:37:39.453Z,93.41
2022-11-17T09:38:39.835Z,93.41
2022-11-17T09:39:39.412Z,93.51
2022-11-17T09:40:39.395Z,93.45
2022-11-17T09:41:39.411Z,93.15
2022-11-17T09:42:39.373Z,91.98
2022-11-17T09:43:39.381Z,92.39
2022-11-17T09:44:39.357Z,92.29
2022-11-17T09:45:39.367Z,93.31
2022-11-17T09:46:39.442Z,92.90
2022-11-17T09:47:39.376Z,92.29
2022-11-17T09:48:51.939Z,92.59
2022-11-17T09:49:40.297Z,91.47
2022-11-17T09:50:39.280Z,90.75
2022-11-17T09:51:39.295Z,90.04
2022-11-17T09:52:39.275Z,89.63
2022-11-17T09:53:39.273Z,89.84
2022-11-17T09:54:39.246Z,90.35
2022-11-17T09:55:39.260Z,90.66
2022-11-17T09:56:39.226Z,91.53
2022-11-17T09:57:39.211Z,91.43
2022-11-17T09:58:39.573Z,90.71
2022-11-17T09:59:39.213Z,90.61
2022-11-17T10:00:39.191Z,90.51
2022-11-17T10:01:39.284Z,90.31
2022-11-17T10:02:39.306Z,90.10
2022-11-17T10:03:45.197Z,90.31
2022-11-17T10:04:40.151Z,89.75
2022-11-17T10:05:39.152Z,88.98
2022-11-17T10:06:39.111Z,88.57
2022-11-17T10:07:39.111Z,89.49
2022-11-17T10:08:39.112Z,89.59
2022-11-17T10:09:39.081Z,89.14
2022-11-17T10:10:39.069Z,88.06
2022-11-17T10:11:39.104Z,88.73
2022-11-17T10:12:39.048Z,88.02
2022-11-17T10:13:39.062Z,88.02
2022-11-17T10:14:39.045Z,87.61
2022-11-17T10:15:39.015Z,87.98
2022-11-17T10:16:39.003Z,89.04
2022-11-17T10:17:39.023Z,88.12
2022-11-17T10:18:39.161Z,87.71
2022-11-17T10:19:38.971Z,87.10
2022-11-17T10:20:38.954Z,87.37
2022-11-17T10:21:38.950Z,87.10
2022-11-17T10:22:38.956Z,86.90
2022-11-17T10:23:45.909Z,86.59
2022-11-17T10:24:39.938Z,85.33
2022-11-17T10:25:38.909Z,84.96
2022-11-17T10:26:38.895Z,85.57
2022-11-17T10:27:38.906Z,86.55
2022-11-17T10:28:38.867Z,86.80
2022-11-17T10:29:38.882Z,86.69
2022-11-17T10:30:38.853Z,86.96
2022-11-17T10:31:38.846Z,86.86
2022-11-17T10:32:40.719Z,86.65
2022-11-17T10:33:39.897Z,85.94
2022-11-17T10:34:40.998Z,86.49
2022-11-17T10:35:38.815Z,86.18
2022-11-17T10:36:38.782Z,85.68
2022-11-17T10:37:38.812Z,85.77
2022-11-17T10:38:38.761Z,86.24
2022-11-17T10:39:38.748Z,86.65
2022-11-17T10:40:38.738Z,87.00
2022-11-17T10:41:38.761Z,86.65
2022-11-17T10:42:38.743Z,86.49
2022-11-17T10:43:38.886Z,86.08
2022-11-17T10:44:38.693Z,86.69
2022-11-17T10:45:38.714Z,86.69
2022-11-17T10:46:46.274Z,86.69
2022-11-17T10:47:38.677Z,87.00
2022-11-17T10:48:38.678Z,88.02
2022-11-17T10:49:38.641Z,87.61
2022-11-17T10:50:38.644Z,86.69
2022-11-17T10:51:38.635Z,87.06
2022-11-17T10:52:38.606Z,87.47
2022-11-17T10:53:44.909Z,86.86
2022-11-17T10:54:39.582Z,87.51
2022-11-17T10:55:38.590Z,87.92
2022-11-17T10:56:38.555Z,88.02
2022-11-17T10:57:38.571Z,87.10
2022-11-17T10:58:38.543Z,86.69
2022-11-17T10:59:38.549Z,86.59
2022-11-17T11:00:38.539Z,86.39
2022-11-17T11:01:38.590Z,86.65
2022-11-17T11:02:38.492Z,87.26
2022-11-17T11:03:38.836Z,87.57
2022-11-17T11:04:38.473Z,86.96
2022-11-17T11:05:38.477Z,86.76
2022-11-17T11:06:38.506Z,86.86
2022-11-17T11:07:38.543Z,86.65
2022-11-17T11:08:38.434Z,87.16
2022-11-17T11:09:38.441Z,86.65
2022-11-17T11:10:38.420Z,86.15
2022-11-17T11:11:38.407Z,86.82
2022-11-17T11:12:38.413Z,85.69
2022-11-17T11:13:38.384Z,85.19
2022-11-17T11:14:38.359Z,85.13
2022-11-17T11:15:38.378Z,84.98
2022-11-17T11:16:41.365Z,85.39
2022-11-17T11:17:39.341Z,85.39
2022-11-17T11:18:38.365Z,83.18
2022-11-17T11:19:38.312Z,84.88
2022-11-17T11:20:38.296Z,83.45
2022-11-17T11:21:38.289Z,84.47
2022-11-17T11:22:38.310Z,84.17
2022-11-17T11:23:38.297Z,84.47
2022-11-17T11:24:38.249Z,84.88
2022-11-17T11:25:38.325Z,84.47
2022-11-17T11:26:38.233Z,84.67
2022-11-17T11:27:38.223Z,84.88
2022-11-17T11:28:42.722Z,83.65
2022-11-17T11:29:39.206Z,83.76
2022-11-17T11:30:38.184Z,83.86
2022-11-17T11:31:38.182Z,83.15
2022-11-17T11:32:38.193Z,83.86
2022-11-17T11:33:38.166Z,82.84
2022-11-17T11:34:38.172Z,82.94
2022-11-17T11:35:38.131Z,83.96
2022-11-17T11:36:38.146Z,83.96
2022-11-17T11:37:38.114Z,83.82
2022-11-17T11:38:38.122Z,83.65
2022-11-17T11:39:38.113Z,83.35
2022-11-17T11:40:38.116Z,83.76
2022-11-17T11:41:38.099Z,83.76
2022-11-17T11:42:38.053Z,83.62
2022-11-17T11:43:38.047Z,84.84
2022-11-17T11:44:38.028Z,83.65
2022-11-17T11:45:38.036Z,83.96
2022-11-17T11:46:38.056Z,83.51
2022-11-17T11:47:38.000Z,83.15
2022-11-17T11:48:37.990Z,81.99
2022-11-17T11:49:38.127Z,82.09
2022-11-17T11:50:41.748Z,83.15
2022-11-17T11:51:37.952Z,82.19
2022-11-17T11:52:37.958Z,82.70
2022-11-17T11:53:37.945Z,82.19
2022-11-17T11:54:40.333Z,82.19
2022-11-17T11:55:37.915Z,82.19
2022-11-17T11:56:37.896Z,81.88
2022-11-17T11:57:37.898Z,82.19
2022-11-17T11:58:37.902Z,81.99
2022-11-17T11:59:37.881Z,81.88
2022-11-17T12:00:37.888Z,81.68
2022-11-17T12:01:37.839Z,81.88
2022-11-17T12:02:37.898Z,80.46
2022-11-17T12:03:37.906Z,80.77
2022-11-17T12:04:37.824Z,80.46
2022-11-17T12:05:37.816Z,80.87
2022-11-17T12:06:37.783Z,80.66
2022-11-17T12:07:37.832Z,81.38
2022-11-17T12:08:37.778Z,81.58
2022-11-17T12:09:37.771Z,81.27
2022-11-17T12:10:37.755Z,80.26
2022-11-17T12:11:37.735Z,81.17
2022-11-17T12:12:37.734Z,80.87
2022-11-17T12:13:43.834Z,79.85
2022-11-17T12:14:37.702Z,80.26
2022-11-17T12:15:37.726Z,80.16
2022-11-17T12:16:37.672Z,79.75
2022-11-17T12:17:37.665Z,79.85
2022-11-17T12:18:37.651Z,79.81
2022-11-17T12:19:37.661Z,80.02
2022-11-17T12:20:37.646Z,79.61
2022-11-17T12:21:37.636Z,80.36
2022-11-17T12:22:37.606Z,80.11
2022-11-17T12:23:37.642Z,80.11
2022-11-17T12:24:37.595Z,80.11
2022-11-17T12:25:37.577Z,80.32
2022-11-17T12:26:37.592Z,79.41
2022-11-17T12:27:37.575Z,80.73
2022-11-17T12:28:37.553Z,80.99
2022-11-17T12:29:37.536Z,80.11
2022-11-17T12:30:37.520Z,80.63
2022-11-17T12:31:37.574Z,79.91
2022-11-17T12:32:37.511Z,79.91
2022-11-17T12:33:37.492Z,79.71
2022-11-17T12:34:37.498Z,80.93
2022-11-17T12:35:37.461Z,81.20
2022-11-17T12:36:37.523Z,79.57
2022-11-17T12:37:37.474Z,80.69
2022-11-17T12:38:37.467Z,80.90
2022-11-17T12:39:37.424Z,80.79
2022-11-17T12:40:37.409Z,80.38
2022-11-17T12:41:37.406Z,80.08
2022-11-17T12:42:37.416Z,80.49
2022-11-17T12:43:37.377Z,79.68
2022-11-17T12:44:37.418Z,79.88
2022-11-17T12:45:41.750Z,80.08
2022-11-17T12:46:37.345Z,79.88
2022-11-17T12:47:37.396Z,79.47
2022-11-17T12:48:37.488Z,79.57
2022-11-17T12:49:37.315Z,80.18
2022-11-17T12:50:37.359Z,80.08
2022-11-17T12:51:37.297Z,79.16
2022-11-17T12:52:37.285Z,79.68
2022-11-17T12:53:37.263Z,80.38
2022-11-17T12:54:37.258Z,80.18
2022-11-17T12:55:37.267Z,80.24
2022-11-17T12:56:37.254Z,80.08
2022-11-17T12:57:37.227Z,79.77
2022-11-17T12:58:37.241Z,79.68
2022-11-17T12:59:37.224Z,80.08
2022-11-17T13:00:37.212Z,79.88
2022-11-17T13:01:37.227Z,80.02
2022-11-17T13:02:37.217Z,79.88
2022-11-17T13:03:37.182Z,80.29
2022-11-17T13:04:37.180Z,79.00
2022-11-17T13:05:37.138Z,79.27
2022-11-17T13:06:37.304Z,79.16
2022-11-17T13:07:37.182Z,79.16
2022-11-17T13:08:37.116Z,77.78
2022-11-17T13:09:37.135Z,77.84
2022-11-17T13:10:37.097Z,78.39
2022-11-17T13:11:37.073Z,78.19
2022-11-17T13:12:37.065Z,77.47
2022-11-17T13:13:37.793Z,77.87
2022-11-17T13:14:37.073Z,78.39
2022-11-17T13:15:37.051Z,79.81
2022-11-17T13:16:37.027Z,79.00
2022-11-17T13:17:37.003Z,77.87
2022-11-17T13:18:36.994Z,78.80
2022-11-17T13:19:37.014Z,79.10
2022-11-17T13:20:36.977Z,78.19
2022-11-17T13:21:36.957Z,78.49
2022-11-17T13:22:41.760Z,79.30
2022-11-17T13:23:36.943Z,79.41
2022-11-17T13:24:36.973Z,79.30
2022-11-17T13:25:36.919Z,79.10
2022-11-17T13:26:36.952Z,80.02
2022-11-17T13:27:36.897Z,79.61
2022-11-17T13:28:36.901Z,79.41
2022-11-17T13:29:36.893Z,79.50
2022-11-17T13:30:36.916Z,79.71
2022-11-17T13:31:36.847Z,79.20
2022-11-17T13:32:36.845Z,79.10
2022-11-17T13:33:40.147Z,79.27
2022-11-17T13:34:36.845Z,79.50
2022-11-17T13:35:36.824Z,79.30
2022-11-17T13:36:36.794Z,78.28
2022-11-17T13:37:36.822Z,78.28
2022-11-17T13:38:36.790Z,78.19
2022-11-17T13:39:36.760Z,79.16
2022-11-17T13:40:36.787Z,79.20
2022-11-17T13:41:36.750Z,79.10
2022-11-17T13:42:36.779Z,79.61
2022-11-17T13:43:36.715Z,79.20
2022-11-17T13:44:36.740Z,79.50
2022-11-17T13:45:36.715Z,79.20
2022-11-17T13:46:36.714Z,80.11
2022-11-17T13:47:36.793Z,79.61
2022-11-17T13:48:36.663Z,79.81
2022-11-17T13:49:36.675Z,79.30
2022-11-17T13:50:36.656Z,80.26
2022-11-17T13:51:36.716Z,80.11
2022-11-17T13:52:41.922Z,80.02
2022-11-17T13:53:37.628Z,79.91
2022-11-17T13:54:36.657Z,80.02
2022-11-17T13:55:36.633Z,79.91
2022-11-17T13:56:36.613Z,80.02
2022-11-17T13:57:36.607Z,79.71
2022-11-17T13:58:36.561Z,79.81
2022-11-17T13:59:36.587Z,79.61
2022-11-17T14:00:36.537Z,79.81
2022-11-17T14:01:36.614Z,80.11
2022-11-17T14:02:36.574Z,79.91
2022-11-17T14:03:36.525Z,80.42
2022-11-17T14:04:36.526Z,80.63
2022-11-17T14:05:36.477Z,80.83
2022-11-17T14:06:36.499Z,80.56
2022-11-17T14:07:36.633Z,80.56
2022-11-17T14:08:36.447Z,80.16
2022-11-17T14:09:36.459Z,80.66
2022-11-17T14:10:36.436Z,80.46
2022-11-17T14:11:36.404Z,80.36
2022-11-17T14:12:36.400Z,80.46
2022-11-17T14:13:36.420Z,80.16
2022-11-17T14:14:36.375Z,80.87
2022-11-17T14:15:36.367Z,80.77
2022-11-17T14:16:36.465Z,80.56
2022-11-17T14:17:36.354Z,80.66
2022-11-17T14:18:36.362Z,81.93
2022-11-17T14:19:36.320Z,80.87
2022-11-17T14:20:36.328Z,81.07
2022-11-17T14:21:36.344Z,81.48
2022-11-17T14:22:36.306Z,81.21
2022-11-17T14:23:36.308Z,82.50
2022-11-17T14:24:36.344Z,81.99
2022-11-17T14:25:36.342Z,81.38
2022-11-17T14:26:36.280Z,81.62
2022-11-17T14:27:36.294Z,81.52
2022-11-17T14:28:36.298Z,81.48
2022-11-17T14:29:36.326Z,81.99
2022-11-17T14:30:37.149Z,82.19
2022-11-17T14:31:36.317Z,81.99
2022-11-17T14:32:36.222Z,82.84
2022-11-17T14:33:36.415Z,82.40
2022-11-17T14:34:36.321Z,81.52
2022-11-17T14:35:36.161Z,82.13
2022-11-17T14:36:36.167Z,82.23
2022-11-17T14:37:36.214Z,82.13
2022-11-17T14:38:36.167Z,83.15
2022-11-17T14:39:36.125Z,82.84
2022-11-17T14:40:36.125Z,82.43
2022-11-17T14:41:36.147Z,82.33
2022-11-17T14:42:36.494Z,82.23
2022-11-17T14:43:36.807Z,82.13
2022-11-17T14:44:36.093Z,82.54
2022-11-17T14:45:36.037Z,82.13
2022-11-17T14:46:36.064Z,81.82
2022-11-17T14:47:36.114Z,82.13
2022-11-17T14:48:36.035Z,82.23
2022-11-17T14:49:35.995Z,82.33
2022-11-17T14:50:36.171Z,82.23
2022-11-17T14:51:36.436Z,82.84
2022-11-17T14:52:36.425Z,82.74
2022-11-17T14:53:41.787Z,82.17
2022-11-17T14:54:36.039Z,82.03
2022-11-17T14:55:35.944Z,82.54
2022-11-17T14:56:35.939Z,82.94
2022-11-17T14:57:35.939Z,82.84
2022-11-17T14:58:35.927Z,82.88
2022-11-17T14:59:35.938Z,82.47
2022-11-17T15:00:35.870Z,83.35
2022-11-17T15:01:35.871Z,83.80
2022-11-17T15:02:35.897Z,84.00
2022-11-17T15:03:35.933Z,83.90
2022-11-17T15:04:49.945Z,83.49
2022-11-17T15:05:36.822Z,83.80
2022-11-17T15:06:35.867Z,83.12
2022-11-17T15:07:35.851Z,82.71
2022-11-17T15:08:35.831Z,83.70
2022-11-17T15:09:35.781Z,83.43
2022-11-17T15:10:35.780Z,83.63
2022-11-17T15:11:39.417Z,84.04
2022-11-17T15:12:35.762Z,83.53
2022-11-17T15:13:35.747Z,83.63
2022-11-17T15:14:35.734Z,84.04
2022-11-17T15:15:35.741Z,83.80
2022-11-17T15:16:35.699Z,83.23
2022-11-17T15:17:35.698Z,83.63
2022-11-17T15:18:35.703Z,83.70
2022-11-17T15:19:35.676Z,84.04
2022-11-17T15:20:35.672Z,83.12
2022-11-17T15:21:35.648Z,83.84
2022-11-17T15:22:35.638Z,84.04
2022-11-17T15:23:35.637Z,84.45
2022-11-17T15:24:35.637Z,84.75
2022-11-17T15:25:35.596Z,85.47
2022-11-17T15:26:35.593Z,85.47
2022-11-17T15:27:35.590Z,85.27
2022-11-17T15:28:35.581Z,85.27
2022-11-17T15:29:35.544Z,85.37
2022-11-17T15:30:35.584Z,85.47
2022-11-17T15:31:35.555Z,85.27
2022-11-17T15:32:35.522Z,85.37
2022-11-17T15:33:35.522Z,85.47
2022-11-17T15:34:36.222Z,85.61
2022-11-17T15:35:35.501Z,84.96
2022-11-17T15:36:35.503Z,85.37
2022-11-17T15:37:35.466Z,85.41
2022-11-17T15:38:35.482Z,84.96
2022-11-17T15:39:35.455Z,85.68
2022-11-17T15:40:35.455Z,86.08
2022-11-17T15:41:35.451Z,86.12
2022-11-17T15:42:35.421Z,86.22
2022-11-17T15:43:35.404Z,86.02
2022-11-17T15:44:35.392Z,85.92
2022-11-17T15:45:35.379Z,85.61
2022-11-17T15:46:35.394Z,85.71
2022-11-17T15:47:35.370Z,85.51
2022-11-17T15:48:35.358Z,85.82
2022-11-17T15:49:35.750Z,86.08
2022-11-17T15:50:35.364Z,86.12
2022-11-17T15:51:35.321Z,85.92
2022-11-17T15:53:02.305Z,86.12
2022-11-17T15:53:36.385Z,86.33
2022-11-17T15:54:35.292Z,85.30
2022-11-17T15:55:35.284Z,85.41
2022-11-17T15:56:35.269Z,85.71
2022-11-17T15:57:35.262Z,86.12
2022-11-17T15:58:35.254Z,86.22
2022-11-17T15:59:35.258Z,86.22
2022-11-17T16:00:35.230Z,86.22
2022-11-17T16:01:35.383Z,86.02
2022-11-17T16:02:58.422Z,87.08
2022-11-17T16:03:36.209Z,86.94
2022-11-17T16:04:35.188Z,87.08
2022-11-17T16:05:35.154Z,87.18
2022-11-17T16:06:35.153Z,86.63
2022-11-17T16:07:35.270Z,86.63
2022-11-17T16:08:35.130Z,86.73
2022-11-17T16:09:35.119Z,87.24
2022-11-17T16:10:35.113Z,87.04
2022-11-17T16:11:35.123Z,87.24
2022-11-17T16:12:35.105Z,87.14
2022-11-17T16:13:35.067Z,87.49
2022-11-17T16:14:35.087Z,87.65
2022-11-17T16:15:35.039Z,87.49
2022-11-17T16:16:35.039Z,87.79
2022-11-17T16:17:35.112Z,87.90
2022-11-17T16:18:35.047Z,87.70
2022-11-17T16:19:35.016Z,87.94
2022-11-17T16:20:35.128Z,87.70
2022-11-17T16:21:35.029Z,87.90
2022-11-17T16:22:34.971Z,88.20
2022-11-17T16:23:34.961Z,88.04
2022-11-17T16:24:34.966Z,87.70
2022-11-17T16:25:34.942Z,87.49
2022-11-17T16:26:34.970Z,88.24
2022-11-17T16:27:34.938Z,87.79
2022-11-17T16:28:34.901Z,88.24
2022-11-17T16:29:34.900Z,88.14
2022-11-17T16:30:35.731Z,88.71
2022-11-17T16:31:34.893Z,87.84
2022-11-17T16:32:34.872Z,87.73
2022-11-17T16:33:34.867Z,88.24
2022-11-17T16:34:34.894Z,88.04
2022-11-17T16:35:36.219Z,87.84
2022-11-17T16:36:37.216Z,88.04
2022-11-17T16:37:34.819Z,88.04
2022-11-17T16:38:34.899Z,88.24
2022-11-17T16:39:34.814Z,88.85
2022-11-17T16:40:34.847Z,88.24
2022-11-17T16:41:38.724Z,88.76
2022-11-17T16:43:44.751Z,88.24
2022-11-17T16:44:44.120Z,88.24
2022-11-17T16:45:44.704Z,87.84
2022-11-17T16:46:44.709Z,88.04
2022-11-17T16:47:44.005Z,87.98
2022-11-17T16:48:44.002Z,88.29
2022-11-17T16:49:46.757Z,88.65
2022-11-17T16:50:44.969Z,89.31
2022-11-17T16:51:43.984Z,89.11
2022-11-17T16:52:43.977Z,89.00
2022-11-17T16:53:43.937Z,89.00
2022-11-17T16:54:43.948Z,88.59
2022-11-17T16:55:43.913Z,89.11
2022-11-17T16:56:43.928Z,88.70
2022-11-17T16:57:43.893Z,88.59
2022-11-17T16:58:43.906Z,89.00
2022-11-17T16:59:43.916Z,89.11
2022-11-17T17:00:43.871Z,88.79
2022-11-17T17:01:43.847Z,88.70
2022-11-17T17:02:43.925Z,88.84
2022-11-17T17:03:43.821Z,89.31
2022-11-17T17:04:43.812Z,89.97
2022-11-17T17:05:43.826Z,89.31
2022-11-17T17:06:43.798Z,90.06
2022-11-17T17:07:43.845Z,89.72
2022-11-17T17:08:43.790Z,89.82
2022-11-17T17:09:43.781Z,89.97
2022-11-17T17:10:43.752Z,89.56
2022-11-17T17:11:43.776Z,90.17
2022-11-17T17:12:43.748Z,90.06
2022-11-17T17:13:43.751Z,89.97
2022-11-17T17:14:43.710Z,89.51
2022-11-17T17:15:43.689Z,89.76
2022-11-17T17:16:43.695Z,89.61
2022-11-17T17:17:43.690Z,90.06
2022-11-17T17:18:43.681Z,89.56
2022-11-17T17:19:43.652Z,89.92
2022-11-17T17:20:43.643Z,89.86
2022-11-17T17:21:43.640Z,89.76
2022-11-17T17:22:43.618Z,89.92
2022-11-17T17:23:43.656Z,89.97
2022-11-17T17:24:43.604Z,89.86
2022-11-17T17:25:43.585Z,89.86
2022-11-17T17:26:43.579Z,89.86
2022-11-17T17:27:43.585Z,90.58
2022-11-17T17:28:43.571Z,90.37
2022-11-17T17:29:43.546Z,90.33
2022-11-17T17:30:43.546Z,90.37
2022-11-17T17:31:43.564Z,90.37
2022-11-17T17:32:43.514Z,90.37
2022-11-17T17:33:43.518Z,90.27
2022-11-17T17:34:44.230Z,90.37
2022-11-17T17:35:43.493Z,90.23
2022-11-17T17:36:43.480Z,90.47
2022-11-17T17:37:43.497Z,89.92
2022-11-17T17:38:43.477Z,90.12
2022-11-17T17:39:43.468Z,90.94
2022-11-17T17:40:43.453Z,90.17
2022-11-17T17:41:43.463Z,90.43
2022-11-17T17:42:43.441Z,90.27
2022-11-17T17:43:43.419Z,90.43
2022-11-17T17:44:43.443Z,90.84
2022-11-17T17:45:43.386Z,90.84
2022-11-17T17:46:43.368Z,90.88
2022-11-17T17:47:43.355Z,90.84
2022-11-17T17:48:43.421Z,90.99
2022-11-17T17:49:43.353Z,91.70
2022-11-17T17:50:43.333Z,91.46
2022-11-17T17:51:43.339Z,91.91
2022-11-17T17:52:43.302Z,92.42
2022-11-17T17:53:43.288Z,92.11
2022-11-17T17:54:43.285Z,92.47
2022-11-17T17:55:43.278Z,93.19
2022-11-17T17:56:43.262Z,93.19
2022-11-17T17:57:43.268Z,93.50
2022-11-17T17:58:43.252Z,93.85
2022-11-17T17:59:43.238Z,93.33
2022-11-17T18:00:43.231Z,93.44
2022-11-17T18:01:43.229Z,93.95
2022-11-17T18:02:43.220Z,93.85
2022-11-17T18:03:43.199Z,94.15
2022-11-17T18:04:43.170Z,93.95
2022-11-17T18:05:43.191Z,94.36
2022-11-17T18:06:43.145Z,94.36
2022-11-17T18:07:43.182Z,95.07
2022-11-17T18:08:43.123Z,95.28
2022-11-17T18:09:43.165Z,95.07
2022-11-17T18:10:43.117Z,95.59
2022-11-17T18:11:43.086Z,95.89
2022-11-17T18:12:43.090Z,95.59
2022-11-17T18:13:43.097Z,95.59
2022-11-17T18:14:43.082Z,96.34
2022-11-17T18:15:43.067Z,96.20
2022-11-17T18:16:43.063Z,96.20
2022-11-17T18:17:43.038Z,95.79
2022-11-17T18:18:43.050Z,95.79
2022-11-17T18:19:43.021Z,96.20
2022-11-17T18:20:43.000Z,96.66
2022-11-17T18:21:43.052Z,96.25
2022-11-17T18:22:42.980Z,96.34
2022-11-17T18:23:42.981Z,96.75